createdAt,value
2022-07-29T00:00:49.218Z,16.70
2022-07-29T00:03:18.139Z,16.70
2022-07-29T00:05:47.102Z,16.70
2022-07-29T00:08:16.917Z,16.70
2022-07-29T00:10:45.806Z,16.60
2022-07-29T00:13:14.901Z,16.52
2022-07-29T00:15:43.998Z,16.50
2022-07-29T00:18:12.998Z,16.50
2022-07-29T00:20:41.989Z,16.40
2022-07-29T00:23:13.586Z,16.40
2022-07-29T00:25:42.943Z,16.40
2022-07-29T00:28:11.838Z,16.30
2022-07-29T00:30:41.238Z,16.20
2022-07-29T00:33:11.344Z,16.20
2022-07-29T00:35:45.781Z,16.10
2022-07-29T00:38:18.261Z,16.10
2022-07-29T00:40:48.076Z,16.04
2022-07-29T00:43:18.686Z,16.00
2022-07-29T00:45:47.594Z,16.02
2022-07-29T00:48:16.587Z,16.00
2022-07-29T00:50:45.479Z,16.00
2022-07-29T00:53:14.589Z,15.90
2022-07-29T00:55:43.570Z,15.90
2022-07-29T00:58:15.009Z,15.84
2022-07-29T01:00:45.566Z,15.80
2022-07-29T01:03:14.750Z,15.80
2022-07-29T01:05:51.538Z,15.80
2022-07-29T01:08:21.851Z,15.70
2022-07-29T01:10:52.113Z,15.72
2022-07-29T01:13:22.074Z,15.70
2022-07-29T01:16:00.935Z,15.70
2022-07-29T01:18:41.687Z,15.60
2022-07-29T01:21:53.875Z,15.50
2022-07-29T01:24:22.581Z,15.46
2022-07-29T01:27:10.825Z,15.40
2022-07-29T01:29:56.758Z,15.30
2022-07-29T01:32:36.911Z,15.30
2022-07-29T01:35:26.346Z,15.20
2022-07-29T01:38:11.110Z,15.20
2022-07-29T01:41:17.889Z,15.18
2022-07-29T01:43:58.710Z,15.10
2022-07-29T01:46:36.566Z,15.10
2022-07-29T01:49:15.796Z,15.10
2022-07-29T01:52:02.819Z,15.04
2022-07-29T01:54:40.311Z,15.00
2022-07-29T01:57:11.010Z,15.00
2022-07-29T01:59:40.960Z,14.98
2022-07-29T02:02:12.927Z,15.00
2022-07-29T02:04:44.273Z,15.00
2022-07-29T02:07:20.023Z,15.00
2022-07-29T02:09:51.891Z,15.10
2022-07-29T02:12:21.805Z,15.10
2022-07-29T02:14:55.408Z,15.10
2022-07-29T02:17:32.796Z,15.10
2022-07-29T02:20:04.526Z,15.04
2022-07-29T02:22:36.701Z,15.10
2022-07-29T02:25:08.448Z,15.00
2022-07-29T02:27:44.888Z,14.90
2022-07-29T02:30:14.680Z,14.80
2022-07-29T02:32:44.965Z,14.80
2022-07-29T02:35:17.321Z,14.70
2022-07-29T02:38:08.163Z,14.60
2022-07-29T02:40:40.409Z,14.70
2022-07-29T02:43:11.498Z,14.70
2022-07-29T02:45:41.386Z,14.70
2022-07-29T02:48:16.606Z,14.70
2022-07-29T02:51:00.986Z,14.78
2022-07-29T02:53:34.895Z,14.80
2022-07-29T02:56:12.184Z,14.88
2022-07-29T02:58:48.395Z,14.90
2022-07-29T03:01:31.701Z,14.92
2022-07-29T03:04:05.150Z,15.00
2022-07-29T03:06:38.868Z,15.00
2022-07-29T03:09:13.398Z,15.00
2022-07-29T03:11:50.192Z,15.00
2022-07-29T03:14:21.550Z,15.00
2022-07-29T03:16:52.534Z,15.00
2022-07-29T03:19:21.984Z,15.00
2022-07-29T03:21:51.379Z,15.00
2022-07-29T03:24:36.142Z,15.00
2022-07-29T03:27:06.973Z,14.98
2022-07-29T03:29:36.183Z,14.94
2022-07-29T03:32:08.624Z,14.90
2022-07-29T03:34:39.200Z,15.00
2022-07-29T03:37:08.487Z,14.90
2022-07-29T03:39:42.914Z,14.94
2022-07-29T03:42:16.543Z,15.00
2022-07-29T03:44:50.398Z,14.90
2022-07-29T03:47:50.307Z,14.90
2022-07-29T03:50:17.408Z,15.00
2022-07-29T03:52:47.397Z,15.08
2022-07-29T03:55:17.325Z,15.10
2022-07-29T03:57:48.598Z,15.26
2022-07-29T04:00:18.176Z,15.40
2022-07-29T04:02:50.231Z,15.60
2022-07-29T04:05:20.162Z,15.80
2022-07-29T04:07:50.214Z,16.00
2022-07-29T04:10:25.203Z,16.24
2022-07-29T04:13:01.151Z,16.50
2022-07-29T04:15:31.334Z,16.74
2022-07-29T04:18:01.016Z,17.00
2022-07-29T04:20:29.890Z,17.20
2022-07-29T04:22:58.785Z,17.48
2022-07-29T04:25:27.672Z,17.70
2022-07-29T04:28:02.814Z,17.94
2022-07-29T04:30:34.653Z,18.24
2022-07-29T04:33:07.490Z,18.50
2022-07-29T04:35:50.473Z,18.70
2022-07-29T04:38:21.520Z,18.96
2022-07-29T04:40:50.412Z,19.10
2022-07-29T04:43:22.378Z,19.24
2022-07-29T04:45:51.868Z,19.42
2022-07-29T04:48:25.289Z,19.60
2022-07-29T04:50:58.265Z,19.60
2022-07-29T04:53:27.676Z,19.60
2022-07-29T04:55:56.831Z,19.40
2022-07-29T04:58:25.966Z,19.40
2022-07-29T05:00:54.863Z,19.36
2022-07-29T05:03:23.753Z,19.30
2022-07-29T05:05:52.642Z,19.20
2022-07-29T05:08:21.530Z,19.16
2022-07-29T05:10:50.429Z,19.02
2022-07-29T05:13:19.426Z,18.92
2022-07-29T05:15:48.452Z,18.90
2022-07-29T05:18:17.507Z,18.86
2022-07-29T05:20:46.297Z,18.80
2022-07-29T05:23:16.013Z,18.70
2022-07-29T05:25:45.106Z,18.70
2022-07-29T05:28:14.314Z,18.70
2022-07-29T05:30:43.434Z,18.68
2022-07-29T05:33:35.372Z,18.60
2022-07-29T05:36:01.666Z,18.60
2022-07-29T05:38:30.696Z,18.60
2022-07-29T05:41:00.980Z,18.60
2022-07-29T05:43:30.459Z,18.62
2022-07-29T05:45:59.887Z,18.70
2022-07-29T05:48:29.297Z,18.72
2022-07-29T05:50:58.188Z,18.80
2022-07-29T05:53:26.977Z,18.90
2022-07-29T05:55:56.174Z,19.00
2022-07-29T05:58:25.274Z,19.10
2022-07-29T06:00:55.494Z,19.10
2022-07-29T06:03:24.285Z,19.18
2022-07-29T06:05:53.174Z,19.20
2022-07-29T06:08:22.372Z,19.20
2022-07-29T06:10:51.370Z,19.20
2022-07-29T06:13:20.264Z,19.30
2022-07-29T06:15:49.408Z,19.40
2022-07-29T06:18:18.348Z,19.40
2022-07-29T06:20:47.549Z,19.50
2022-07-29T06:23:16.643Z,19.60
2022-07-29T06:25:45.741Z,19.70
2022-07-29T06:28:14.891Z,19.70
2022-07-29T06:30:43.760Z,19.80
2022-07-29T06:33:19.949Z,19.80
2022-07-29T06:35:53.553Z,19.80
2022-07-29T06:38:30.043Z,19.90
2022-07-29T06:41:03.988Z,19.90
2022-07-29T06:43:52.627Z,19.92
2022-07-29T06:46:24.840Z,20.00
2022-07-29T06:48:54.199Z,20.10
2022-07-29T06:51:24.348Z,20.10
2022-07-29T06:53:59.979Z,20.18
2022-07-29T06:56:38.305Z,20.20
2022-07-29T06:59:13.794Z,20.20
2022-07-29T07:01:44.616Z,20.22
2022-07-29T07:04:15.248Z,20.26
2022-07-29T07:06:44.498Z,20.30
2022-07-29T07:09:13.405Z,20.30
2022-07-29T07:11:42.285Z,20.40
2022-07-29T07:14:11.176Z,20.40
2022-07-29T07:16:40.124Z,20.50
2022-07-29T07:19:08.959Z,20.50
2022-07-29T07:21:37.863Z,20.60
2022-07-29T07:24:07.751Z,20.68
2022-07-29T07:26:36.758Z,20.76
2022-07-29T07:29:05.756Z,20.80
2022-07-29T07:31:35.021Z,20.90
2022-07-29T07:34:04.162Z,21.00
2022-07-29T07:36:33.248Z,21.10
2022-07-29T07:39:02.558Z,21.30
2022-07-29T07:41:32.468Z,21.34
2022-07-29T07:44:01.973Z,21.40
2022-07-29T07:46:30.870Z,21.50
2022-07-29T07:48:59.895Z,21.60
2022-07-29T07:51:29.055Z,21.60
2022-07-29T07:53:57.843Z,21.58
2022-07-29T07:56:28.005Z,21.60
2022-07-29T07:58:58.605Z,21.60
2022-07-29T08:01:27.452Z,21.52
2022-07-29T08:03:56.379Z,21.50
2022-07-29T08:06:26.408Z,21.50
2022-07-29T08:08:56.473Z,21.60
2022-07-29T08:11:25.624Z,21.60
2022-07-29T08:13:54.608Z,21.60
2022-07-29T08:16:23.522Z,21.70
2022-07-29T08:18:52.933Z,21.80
2022-07-29T08:21:23.022Z,21.80
2022-07-29T08:23:59.917Z,21.82
2022-07-29T08:26:29.816Z,21.90
2022-07-29T08:28:58.721Z,22.00
2022-07-29T08:31:27.731Z,22.10
2022-07-29T08:33:57.720Z,22.10
2022-07-29T08:36:28.259Z,22.20
2022-07-29T08:38:57.247Z,22.20
2022-07-29T08:41:26.136Z,22.40
2022-07-29T08:43:55.235Z,22.60
2022-07-29T08:46:24.738Z,22.80
2022-07-29T08:48:53.699Z,22.90
2022-07-29T08:51:23.443Z,23.20
2022-07-29T08:53:52.546Z,23.40
2022-07-29T08:56:23.461Z,23.70
2022-07-29T08:58:52.765Z,24.20
2022-07-29T09:01:35.247Z,24.60
2022-07-29T09:04:12.444Z,25.24
2022-07-29T09:06:46.633Z,25.80
2022-07-29T09:09:16.801Z,26.10
2022-07-29T09:11:45.808Z,26.10
2022-07-29T09:14:16.512Z,26.10
2022-07-29T09:16:53.136Z,26.48
2022-07-29T09:19:32.470Z,26.94
2022-07-29T09:22:04.087Z,26.94
2022-07-29T09:24:43.757Z,26.50
2022-07-29T09:27:23.498Z,26.30
2022-07-29T09:30:14.099Z,26.60
2022-07-29T09:33:04.060Z,27.08
2022-07-29T09:35:33.079Z,27.62
2022-07-29T09:38:15.124Z,27.92
2022-07-29T09:40:57.981Z,28.30
2022-07-29T09:43:33.793Z,28.40
2022-07-29T09:46:16.182Z,28.40
2022-07-29T09:48:45.076Z,28.10
2022-07-29T09:51:25.463Z,28.10
2022-07-29T09:53:57.684Z,28.30
2022-07-29T09:56:43.732Z,28.50
2022-07-29T09:59:13.602Z,28.70
2022-07-29T10:01:42.893Z,28.38
2022-07-29T10:04:11.785Z,28.38
2022-07-29T10:07:04.887Z,28.40
2022-07-29T10:09:35.010Z,28.30
2022-07-29T10:12:16.040Z,28.10
2022-07-29T10:14:44.931Z,27.92
2022-07-29T10:17:13.928Z,28.26
2022-07-29T10:19:43.946Z,28.40
2022-07-29T10:22:14.950Z,28.50
2022-07-29T10:24:44.081Z,28.60
2022-07-29T10:27:13.878Z,28.74
2022-07-29T10:29:42.686Z,28.70
2022-07-29T10:32:37.257Z,28.42
2022-07-29T10:35:15.168Z,28.00
2022-07-29T10:38:21.553Z,27.60
2022-07-29T10:41:28.953Z,27.20
2022-07-29T10:44:23.068Z,27.00
2022-07-29T10:46:54.856Z,27.10
2022-07-29T10:49:30.696Z,27.42
2022-07-29T10:52:10.737Z,27.68
2022-07-29T10:54:51.321Z,27.94
2022-07-29T10:57:53.071Z,28.20
2022-07-29T11:00:31.925Z,28.24
2022-07-29T11:03:01.648Z,28.10
2022-07-29T11:05:55.456Z,28.18
2022-07-29T11:08:27.836Z,28.20
2022-07-29T11:11:22.253Z,28.38
2022-07-29T11:13:54.933Z,28.32
2022-07-29T11:16:25.275Z,28.16
2022-07-29T11:19:13.446Z,28.04
2022-07-29T11:21:53.357Z,28.30
2022-07-29T11:24:35.367Z,28.50
2022-07-29T11:27:21.353Z,28.80
2022-07-29T11:29:57.466Z,29.00
2022-07-29T11:32:37.862Z,28.90
2022-07-29T11:35:37.493Z,28.80
2022-07-29T11:38:27.727Z,28.70
2022-07-29T11:41:19.143Z,28.50
2022-07-29T11:43:59.442Z,28.40
2022-07-29T11:46:51.639Z,28.50
2022-07-29T11:49:32.253Z,28.50
2022-07-29T11:52:17.876Z,28.70
2022-07-29T11:54:58.342Z,28.88
2022-07-29T11:57:36.234Z,28.70
2022-07-29T12:00:12.701Z,28.54
2022-07-29T12:02:45.320Z,28.56
2022-07-29T12:05:36.493Z,28.84
2022-07-29T12:08:23.433Z,29.12
2022-07-29T12:10:53.350Z,29.20
2022-07-29T12:13:37.176Z,29.20
2022-07-29T12:16:07.156Z,28.94
2022-07-29T12:18:35.996Z,28.78
2022-07-29T12:21:05.252Z,28.60
2022-07-29T12:23:35.423Z,28.40
2022-07-29T12:26:10.958Z,28.40
2022-07-29T12:28:50.920Z,28.38
2022-07-29T12:31:42.273Z,28.30
2022-07-29T12:34:09.083Z,28.30
2022-07-29T12:36:39.481Z,28.50
2022-07-29T12:39:09.281Z,28.82
2022-07-29T12:41:38.819Z,29.04
2022-07-29T12:44:07.819Z,29.16
2022-07-29T12:46:37.383Z,29.30
2022-07-29T12:49:08.677Z,29.08
2022-07-29T12:51:41.828Z,28.80
2022-07-29T12:54:14.607Z,28.80
2022-07-29T12:56:46.351Z,29.02
2022-07-29T12:59:23.689Z,29.20
2022-07-29T13:01:54.167Z,29.10
2022-07-29T13:04:32.518Z,29.20
2022-07-29T13:07:09.151Z,29.30
2022-07-29T13:09:45.337Z,29.40
2022-07-29T13:12:15.785Z,29.10
2022-07-29T13:14:51.806Z,28.80
2022-07-29T13:17:24.746Z,28.80
2022-07-29T13:20:08.822Z,28.80
2022-07-29T13:22:37.993Z,28.78
2022-07-29T13:25:08.073Z,28.80
2022-07-29T13:27:40.813Z,28.80
2022-07-29T13:30:11.019Z,28.80
2022-07-29T13:32:40.521Z,28.80
2022-07-29T13:35:11.199Z,28.70
2022-07-29T13:37:40.373Z,28.66
2022-07-29T13:40:11.629Z,28.60
2022-07-29T13:42:41.108Z,28.70
2022-07-29T13:45:12.211Z,28.60
2022-07-29T13:47:46.011Z,28.60
2022-07-29T13:50:18.226Z,28.80
2022-07-29T13:52:49.575Z,29.00
2022-07-29T13:55:18.978Z,29.28
2022-07-29T13:57:48.837Z,29.34
2022-07-29T14:00:18.021Z,29.30
2022-07-29T14:02:46.904Z,29.40
2022-07-29T14:05:15.776Z,29.34
2022-07-29T14:07:44.769Z,29.40
2022-07-29T14:10:18.408Z,29.50
2022-07-29T14:12:49.006Z,29.50
2022-07-29T14:15:18.817Z,29.60
2022-07-29T14:17:47.604Z,29.40
2022-07-29T14:20:17.243Z,29.20
2022-07-29T14:22:46.207Z,29.16
2022-07-29T14:25:15.695Z,29.00
2022-07-29T14:27:45.220Z,28.90
2022-07-29T14:30:14.714Z,28.80
2022-07-29T14:32:43.514Z,28.44
2022-07-29T14:35:12.408Z,28.00
2022-07-29T14:37:42.013Z,27.80
2022-07-29T14:40:12.426Z,27.70
2022-07-29T14:42:41.642Z,27.60
2022-07-29T14:45:11.360Z,27.64
2022-07-29T14:47:41.712Z,27.80
2022-07-29T14:50:11.849Z,27.86
2022-07-29T14:52:40.793Z,28.00
2022-07-29T14:55:19.880Z,28.00
2022-07-29T14:57:51.245Z,28.00
2022-07-29T15:00:20.166Z,28.02
2022-07-29T15:03:02.004Z,28.04
2022-07-29T15:05:32.830Z,28.00
2022-07-29T15:08:01.791Z,28.10
2022-07-29T15:10:31.195Z,28.10
2022-07-29T15:12:59.986Z,28.20
2022-07-29T15:15:29.190Z,28.20
2022-07-29T15:17:58.071Z,28.16
2022-07-29T15:20:28.380Z,28.02
2022-07-29T15:22:58.282Z,28.08
2022-07-29T15:25:28.358Z,28.00
2022-07-29T15:28:01.183Z,27.90
2022-07-29T15:30:34.783Z,27.70
2022-07-29T15:33:04.719Z,27.50
2022-07-29T15:35:40.626Z,27.50
2022-07-29T15:38:09.902Z,27.60
2022-07-29T15:40:42.491Z,27.70
2022-07-29T15:43:11.771Z,27.70
2022-07-29T15:46:03.957Z,27.70
2022-07-29T15:48:33.001Z,27.70
2022-07-29T15:51:01.795Z,27.70
2022-07-29T15:53:30.835Z,27.76
2022-07-29T15:56:02.548Z,27.70
2022-07-29T15:58:31.543Z,27.60
2022-07-29T16:01:00.599Z,27.60
2022-07-29T16:03:30.739Z,27.50
2022-07-29T16:05:59.654Z,27.40
2022-07-29T16:08:28.537Z,27.36
2022-07-29T16:10:57.328Z,27.30
2022-07-29T16:13:26.116Z,27.20
2022-07-29T16:16:02.064Z,27.30
2022-07-29T16:18:31.891Z,27.36
2022-07-29T16:21:00.985Z,27.30
2022-07-29T16:23:30.182Z,27.40
2022-07-29T16:26:00.901Z,27.30
2022-07-29T16:28:31.346Z,27.30
2022-07-29T16:31:00.798Z,27.34
2022-07-29T16:33:54.404Z,27.40
2022-07-29T16:36:19.108Z,27.40
2022-07-29T16:38:48.620Z,27.40
2022-07-29T16:41:17.564Z,27.30
2022-07-29T16:43:46.404Z,27.20
2022-07-29T16:46:18.466Z,27.10
2022-07-29T16:48:49.223Z,27.10
2022-07-29T16:51:18.102Z,27.00
2022-07-29T16:53:49.826Z,27.00
2022-07-29T16:56:19.668Z,26.90
2022-07-29T16:58:48.764Z,26.90
2022-07-29T17:01:18.487Z,26.90
2022-07-29T17:04:06.320Z,26.86
2022-07-29T17:06:37.781Z,26.80
2022-07-29T17:09:09.053Z,26.80
2022-07-29T17:11:52.882Z,26.78
2022-07-29T17:14:29.505Z,26.80
2022-07-29T17:17:01.948Z,26.70
2022-07-29T17:19:35.641Z,26.70
2022-07-29T17:22:13.100Z,26.70
2022-07-29T17:24:49.041Z,26.60
2022-07-29T17:27:18.512Z,26.60
2022-07-29T17:29:47.845Z,26.58
2022-07-29T17:32:17.273Z,26.50
2022-07-29T17:34:46.162Z,26.50
2022-07-29T17:37:15.051Z,26.40
2022-07-29T17:39:44.447Z,26.40
2022-07-29T17:42:14.985Z,26.30
2022-07-29T17:44:43.874Z,26.30
2022-07-29T17:47:15.831Z,26.20
2022-07-29T17:49:46.266Z,26.20
2022-07-29T17:52:16.283Z,26.10
2022-07-29T17:54:45.175Z,26.06
2022-07-29T17:57:14.271Z,26.00
2022-07-29T17:59:43.059Z,25.90
2022-07-29T18:02:13.017Z,25.88
2022-07-29T18:04:42.073Z,25.80
2022-07-29T18:07:11.886Z,25.70
2022-07-29T18:09:40.676Z,25.70
2022-07-29T18:12:10.367Z,25.60
2022-07-29T18:14:39.470Z,25.50
2022-07-29T18:17:09.090Z,25.50
2022-07-29T18:19:38.083Z,25.40
2022-07-29T18:22:08.721Z,25.40
2022-07-29T18:24:37.610Z,25.30
2022-07-29T18:27:06.602Z,25.20
2022-07-29T18:29:35.596Z,25.12
2022-07-29T18:32:05.091Z,25.02
2022-07-29T18:34:34.198Z,25.00
2022-07-29T18:37:02.989Z,24.90
2022-07-29T18:39:31.982Z,24.80
2022-07-29T18:42:00.771Z,24.80
2022-07-29T18:44:29.662Z,24.70
2022-07-29T18:46:58.631Z,24.60
2022-07-29T18:49:28.093Z,24.50
2022-07-29T18:51:57.350Z,24.50
2022-07-29T18:54:26.355Z,24.40
2022-07-29T18:56:55.348Z,24.38
2022-07-29T18:59:24.549Z,24.30
2022-07-29T19:01:53.535Z,24.22
2022-07-29T19:04:23.046Z,24.20
2022-07-29T19:06:52.246Z,24.10
2022-07-29T19:09:21.342Z,24.10
2022-07-29T19:11:54.255Z,24.00
2022-07-29T19:14:24.862Z,24.00
2022-07-29T19:16:53.855Z,23.90
2022-07-29T19:19:22.748Z,23.80
2022-07-29T19:21:51.856Z,23.80
2022-07-29T19:24:21.352Z,23.70
2022-07-29T19:26:50.445Z,23.60
2022-07-29T19:29:19.544Z,23.60
2022-07-29T19:31:48.336Z,23.50
2022-07-29T19:34:17.222Z,23.50
2022-07-29T19:36:46.220Z,23.42
2022-07-29T19:39:15.826Z,23.40
2022-07-29T19:41:44.616Z,23.32
2022-07-29T19:44:14.222Z,23.30
2022-07-29T19:46:43.568Z,23.30
2022-07-29T19:49:14.119Z,23.20
2022-07-29T19:51:43.168Z,23.20
2022-07-29T19:54:12.145Z,23.10
2022-07-29T19:56:42.369Z,23.10
2022-07-29T19:59:11.361Z,23.08
2022-07-29T20:01:41.650Z,23.00
2022-07-29T20:04:10.521Z,22.96
2022-07-29T20:06:39.366Z,22.90
2022-07-29T20:09:08.360Z,22.90
2022-07-29T20:11:46.161Z,22.80
2022-07-29T20:14:15.257Z,22.80
2022-07-29T20:16:44.562Z,22.70
2022-07-29T20:19:13.348Z,22.70
2022-07-29T20:21:42.341Z,22.70
2022-07-29T20:24:11.490Z,22.60
2022-07-29T20:26:40.331Z,22.60
2022-07-29T20:29:09.633Z,22.52
2022-07-29T20:31:38.506Z,22.50
2022-07-29T20:34:07.312Z,22.50
2022-07-29T20:36:37.023Z,22.40
2022-07-29T20:39:05.919Z,22.40
2022-07-29T20:41:35.625Z,22.40
2022-07-29T20:44:05.417Z,22.40
2022-07-29T20:46:35.011Z,22.30
2022-07-29T20:49:04.176Z,22.30
2022-07-29T20:51:33.249Z,22.30
2022-07-29T20:54:13.707Z,22.30
2022-07-29T20:56:42.492Z,22.24
2022-07-29T20:59:11.896Z,22.20
2022-07-29T21:01:41.723Z,22.20
2022-07-29T21:04:10.640Z,22.10
2022-07-29T21:06:39.599Z,22.10
2022-07-29T21:09:08.588Z,22.10
2022-07-29T21:11:44.417Z,22.00
2022-07-29T21:14:41.497Z,22.00
2022-07-29T21:17:10.901Z,22.00
2022-07-29T21:19:39.690Z,21.90
2022-07-29T21:22:09.193Z,21.90
2022-07-29T21:24:38.206Z,21.80
2022-07-29T21:27:25.705Z,21.80
2022-07-29T21:29:54.816Z,21.80
2022-07-29T21:32:29.782Z,21.70
2022-07-29T21:34:59.666Z,21.70
2022-07-29T21:37:28.655Z,21.68
2022-07-29T21:39:57.651Z,21.60
2022-07-29T21:42:26.644Z,21.60
2022-07-29T21:44:55.535Z,21.60
2022-07-29T21:47:24.427Z,21.50
2022-07-29T21:49:53.421Z,21.50
2022-07-29T21:52:23.236Z,21.50
2022-07-29T21:54:52.887Z,21.42
2022-07-29T21:57:21.940Z,21.40
2022-07-29T21:59:50.731Z,21.40
2022-07-29T22:02:19.500Z,21.30
2022-07-29T22:04:48.488Z,21.30
2022-07-29T22:07:17.417Z,21.22
2022-07-29T22:09:47.425Z,21.20
2022-07-29T22:12:16.727Z,21.12
2022-07-29T22:14:45.513Z,21.10
2022-07-29T22:17:14.895Z,21.10
2022-07-29T22:19:43.912Z,21.00
2022-07-29T22:22:13.011Z,21.00
2022-07-29T22:24:42.107Z,21.00
2022-07-29T22:27:10.998Z,20.90
2022-07-29T22:29:40.813Z,20.90
2022-07-29T22:32:10.315Z,20.90
2022-07-29T22:34:39.207Z,20.90
2022-07-29T22:37:08.200Z,20.80
2022-07-29T22:39:37.092Z,20.80
2022-07-29T22:42:06.780Z,20.80
2022-07-29T22:44:35.797Z,20.70
2022-07-29T22:47:05.422Z,20.70
2022-07-29T22:49:34.300Z,20.70
2022-07-29T22:52:03.198Z,20.70
2022-07-29T22:54:31.975Z,20.70
2022-07-29T22:57:00.963Z,20.60
2022-07-29T22:59:30.067Z,20.60
2022-07-29T23:01:59.007Z,20.60
2022-07-29T23:04:28.156Z,20.60
2022-07-29T23:06:57.676Z,20.50
2022-07-29T23:09:26.878Z,20.50
2022-07-29T23:11:55.957Z,20.50
2022-07-29T23:14:24.747Z,20.50
2022-07-29T23:16:53.878Z,20.50
2022-07-29T23:19:22.940Z,20.50
2022-07-29T23:21:52.240Z,20.50
2022-07-29T23:24:21.439Z,20.46
2022-07-29T23:26:50.333Z,20.40
2022-07-29T23:29:20.247Z,20.40
2022-07-29T23:31:49.035Z,20.40
2022-07-29T23:34:18.132Z,20.40
2022-07-29T23:36:47.228Z,20.40
2022-07-29T23:39:16.662Z,20.40
2022-07-29T23:41:45.628Z,20.40
2022-07-29T23:44:14.619Z,20.40
2022-07-29T23:46:45.504Z,20.30
2022-07-29T23:49:14.890Z,20.30
2022-07-29T23:51:43.956Z,20.30
2022-07-29T23:54:12.747Z,20.28
2022-07-29T23:56:41.638Z,20.20
2022-07-29T23:59:10.631Z,20.20
